Time;durP1;ratioP1;P1;durP2;ratioP2;P2;SDS_P1;SDS_P2;PMS_P1;PMS_P2;Temp;Humidity;BMP_temperature;BMP_pressure;BME280_temperature;BME280_humidity;BME280_pressure;Samples;Min_cycle;Max_cycle;Signal;HPM_P1;HPM_P2
2023/01/08 00:01:08;;;;;;;24.27;15.83;;;;;;;2.14;100.00;100753.56;1539567;84;21775;-88
2023/01/08 00:03:36;;;;;;;24.20;15.43;;;;;;;2.08;100.00;100752.61;1473190;88;22661;-84
2023/01/08 00:06:06;;;;;;;31.10;17.50;;;;;;;2.08;100.00;100752.61;1541984;84;21911;-85
2023/01/08 00:08:32;;;;;;;27.67;15.83;;;;;;;2.04;100.00;100745.86;1538788;84;21748;-84
2023/01/08 00:10:58;;;;;;;24.83;17.13;;;;;;;2.01;100.00;100752.55;1546113;84;21870;-85
2023/01/08 00:13:25;;;;;;;25.10;17.50;;;;;;;1.98;100.00;100747.50;1467141;88;21684;-85
2023/01/08 00:15:52;;;;;;;31.53;17.73;;;;;;;1.96;100.00;100743.69;1536735;84;22516;-85
2023/01/08 00:18:18;;;;;;;29.47;18.17;;;;;;;1.94;100.00;100744.70;1539788;84;21846;-85
2023/01/08 00:20:45;;;;;;;27.00;16.50;;;;;;;1.94;100.00;100744.70;1474421;88;21846;-84
2023/01/08 00:23:15;;;;;;;31.80;16.10;;;;;;;1.91;100.00;100735.73;1546562;84;22522;-85
2023/01/08 00:25:41;;;;;;;28.50;17.90;;;;;;;1.86;100.00;100741.66;1468222;87;21846;-85
2023/01/08 00:28:08;;;;;;;31.87;17.80;;;;;;;1.84;100.00;100739.59;1540514;84;21745;-84
2023/01/08 00:30:36;;;;;;;26.97;16.53;;;;;;;1.79;100.00;100733.34;1514265;84;21797;-84
2023/01/08 00:33:02;;;;;;;34.27;19.07;;;;;;;1.79;100.00;100733.34;1481300;88;22864;-84
2023/01/08 00:35:29;;;;;;;31.30;17.80;;;;;;;1.78;100.00;100736.41;1543684;84;22686;-87
2023/01/08 00:37:55;;;;;;;29.07;18.33;;;;;;;1.77;100.00;100736.02;1478047;88;21834;-84
2023/01/08 00:40:21;;;;;;;37.77;19.37;;;;;;;1.74;100.00;100733.58;1536957;84;21893;-87
2023/01/08 00:42:48;;;;;;;31.77;20.37;;;;;;;1.67;100.00;100733.98;1539382;84;22454;-83
2023/01/08 00:45:14;;;;;;;30.93;16.97;;;;;;;1.67;100.00;100733.98;1472593;88;21732;-89
2023/01/08 00:47:40;;;;;;;29.53;17.27;;;;;;;1.66;100.00;100740.97;1542899;84;22775;-90
2023/01/08 00:50:07;;;;;;;27.77;17.50;;;;;;;1.66;100.00;100744.05;1521266;84;21844;-91
2023/01/08 00:52:33;;;;;;;28.23;17.70;;;;;;;1.69;100.00;100727.76;1542022;84;21572;-85
2023/01/08 00:55:00;;;;;;;32.90;19.50;;;;;;;1.69;100.00;100727.76;1542746;84;21602;-90
2023/01/08 00:57:26;;;;;;;32.57;19.60;;;;;;;1.71;100.00;100723.77;1542499;84;21696;-85
2023/01/08 00:59:52;;;;;;;41.37;21.40;;;;;;;1.71;100.00;100724.61;1471374;88;21657;-89
2023/01/08 01:02:18;;;;;;;38.60;20.13;;;;;;;1.72;100.00;100718.45;1543961;84;21561;-88
2023/01/08 01:04:44;;;;;;;40.37;21.67;;;;;;;1.71;100.00;100715.95;1517152;84;21645;-89
2023/01/08 01:07:10;;;;;;;39.70;19.33;;;;;;;1.67;100.00;100724.41;1536291;84;23050;-91
2023/01/08 01:09:37;;;;;;;31.43;18.87;;;;;;;1.63;100.00;100720.27;1519624;84;22098;-89
2023/01/08 01:12:03;;;;;;;32.43;19.67;;;;;;;1.56;100.00;100715.85;1543385;84;22548;-92
2023/01/08 01:14:30;;;;;;;27.30;16.77;;;;;;;1.55;100.00;100708.09;1542549;84;21642;-89
2023/01/08 01:16:56;;;;;;;26.50;16.03;;;;;;;1.55;100.00;100708.09;1474650;88;23215;-85
2023/01/08 01:19:22;;;;;;;29.40;18.60;;;;;;;1.52;100.00;100710.87;1516994;84;21730;-89
2023/01/08 01:21:49;;;;;;;47.97;19.80;;;;;;;1.55;100.00;100718.09;1472467;88;21672;-90
2023/01/08 01:24:15;;;;;;;33.63;17.93;;;;;;;1.56;100.00;100704.58;1542829;84;22551;-89
2023/01/08 01:26:41;;;;;;;37.73;20.57;;;;;;;1.51;100.00;100701.37;1474298;88;21861;-87
2023/01/08 01:29:08;;;;;;;47.93;19.57;;;;;;;1.52;100.00;100706.95;1537725;84;22512;-90
2023/01/08 01:31:34;;;;;;;28.77;14.83;;;;;;;1.53;100.00;100704.75;1477006;88;21779;-87
2023/01/08 01:34:02;;;;;;;35.70;16.97;;;;;;;1.43;100.00;100708.77;1539031;84;21559;-90
2023/01/08 01:36:43;;;;;;;31.13;17.90;;;;;;;1.42;100.00;100701.87;1535444;84;21603;-89
2023/01/08 01:39:10;;;;;;;29.27;18.63;;;;;;;1.44;100.00;100705.22;1480508;88;21526;-88
2023/01/08 01:41:40;;;;;;;26.77;16.43;;;;;;;1.45;100.00;100706.92;1542977;84;21649;-88
2023/01/08 01:44:43;;;;;;;31.02;19.12;;;;;;;1.45;100.00;100708.23;1542828;84;21873;-88
2023/01/08 01:47:32;;;;;;;37.83;15.73;;;;;;;1.42;100.00;100705.78;1537340;84;22476;-88
2023/01/08 01:54:01;;;;;;;32.90;13.53;;;;;;;1.37;100.00;100693.45;1539788;84;21659;-88
2023/01/08 01:56:30;;;;;;;21.53;13.97;;;;;;;1.30;100.00;100692.95;1545658;84;22610;-87
2023/01/08 01:58:56;;;;;;;20.80;14.50;;;;;;;1.23;100.00;100687.19;1537311;84;21680;-87
2023/01/08 02:01:23;;;;;;;19.53;13.87;;;;;;;1.22;100.00;100685.52;1542976;84;21698;-88
2023/01/08 02:03:49;;;;;;;19.33;13.43;;;;;;;1.18;100.00;100685.31;1538395;84;21523;-90
2023/01/08 02:06:27;;;;;;;18.63;13.60;;;;;;;1.14;100.00;100688.98;1550723;84;22441;-88
2023/01/08 02:09:13;;;;;;;18.53;13.77;;;;;;;1.13;100.00;100688.62;1513514;84;21866;-86
2023/01/08 02:12:16;;;;;;;20.20;11.83;;;;;;;1.12;100.00;100677.79;1535462;84;21729;-88
2023/01/08 02:15:14;;;;;;;16.70;12.73;;;;;;;1.09;100.00;100689.25;1474890;88;21713;-87
2023/01/08 02:18:06;;;;;;;25.80;13.70;;;;;;;1.06;100.00;100689.38;1541047;84;21599;-88
2023/01/08 02:20:50;;;;;;;27.50;13.10;;;;;;;1.01;100.00;100687.97;1541506;84;21456;-87
2023/01/08 02:23:58;;;;;;;28.77;14.13;;;;;;;0.93;100.00;100680.53;1477695;88;21815;-86
2023/01/08 02:26:31;;;;;;;21.47;14.13;;;;;;;0.87;100.00;100683.00;1542875;84;22546;-87
2023/01/08 02:29:08;;;;;;;22.37;14.77;;;;;;;0.80;100.00;100683.38;1463600;88;21614;-87
2023/01/08 02:31:39;;;;;;;24.07;16.40;;;;;;;0.77;100.00;100687.45;1546251;84;21890;-88
2023/01/08 02:34:06;;;;;;;23.55;14.43;;;;;;;0.77;100.00;100684.37;1477634;88;22570;-87
2023/01/08 02:36:45;;;;;;;24.43;13.20;;;;;;;0.81;100.00;100683.32;1536095;84;21337;-88
2023/01/08 02:39:44;;;;;;;21.23;13.77;;;;;;;0.84;100.00;100680.55;1539406;84;22668;-89
2023/01/08 02:42:41;;;;;;;20.30;14.40;;;;;;;0.88;100.00;100683.38;1536592;84;21615;-89
2023/01/08 02:45:24;;;;;;;28.13;15.30;;;;;;;0.90;100.00;100682.84;1475432;88;21490;-86
2023/01/08 02:48:31;;;;;;;23.07;15.13;;;;;;;0.93;100.00;100686.22;1536497;84;22510;-89
2023/01/08 02:51:08;;;;;;;37.17;15.17;;;;;;;0.90;100.00;100676.33;1467059;88;21651;-87
2023/01/08 02:53:42;;;;;;;23.23;16.00;;;;;;;0.92;100.00;100681.44;1544209;84;21671;-89
2023/01/08 02:56:16;;;;;;;24.87;15.57;;;;;;;0.90;100.00;100680.23;1546183;84;22512;-88
2023/01/08 02:58:43;;;;;;;24.03;14.40;;;;;;;0.96;100.00;100682.14;1542991;84;21662;-87
2023/01/08 03:01:12;;;;;;;21.77;13.67;;;;;;;1.00;100.00;100681.05;1523759;84;21609;-89
2023/01/08 03:03:41;;;;;;;23.03;15.37;;;;;;;1.00;100.00;100669.32;1539114;84;21607;-86
2023/01/08 03:06:12;;;;;;;25.67;16.23;;;;;;;1.02;100.00;100668.79;1541678;84;21614;-89
2023/01/08 03:08:41;;;;;;;21.73;14.40;;;;;;;1.03;100.00;100666.55;1536061;84;21616;-88
2023/01/08 03:11:11;;;;;;;22.33;13.77;;;;;;;1.03;100.00;100663.94;1529862;84;21344;-90
2023/01/08 03:13:58;;;;;;;28.60;15.13;;;;;;;1.01;100.00;100665.81;1474268;88;21758;-89
2023/01/08 03:16:29;;;;;;;39.90;16.63;;;;;;;1.00;100.00;100666.72;1476494;87;21872;-89
2023/01/08 03:19:13;;;;;;;32.57;15.90;;;;;;;0.99;100.00;100672.86;1537459;84;21699;-89
2023/01/08 03:21:41;;;;;;;23.80;15.30;;;;;;;0.95;100.00;100668.28;1546100;84;22606;-89
2023/01/08 03:24:10;;;;;;;22.50;14.03;;;;;;;0.94;100.00;100668.34;1532969;84;21553;-88
2023/01/08 03:26:38;;;;;;;26.27;14.40;;;;;;;0.94;100.00;100669.18;1525677;84;21621;-90
2023/01/08 03:29:05;;;;;;;23.97;16.47;;;;;;;0.94;100.00;100667.87;1516978;84;21575;-90
2023/01/08 03:31:34;;;;;;;22.70;13.23;;;;;;;0.95;100.00;100662.20;1537702;84;22394;-85
2023/01/08 03:34:03;;;;;;;23.83;15.47;;;;;;;0.98;100.00;100664.64;1542970;84;21552;-88
2023/01/08 03:36:31;;;;;;;27.67;13.53;;;;;;;1.00;100.00;100665.41;1535816;84;21570;-89
2023/01/08 03:43:37;;;;;;;43.63;14.93;;;;;;;1.01;100.00;100648.41;1449527;90;21755;-90
2023/01/08 03:46:11;;;;;;;32.57;16.60;;;;;;;1.00;100.00;100647.17;1513376;85;21460;-89
2023/01/08 03:48:37;;;;;;;26.27;16.47;;;;;;;0.96;100.00;100650.87;1521674;85;21730;-90
2023/01/08 03:51:09;;;;;;;27.30;16.80;;;;;;;0.95;100.00;100645.25;1501111;85;21757;-90
2023/01/08 03:53:36;;;;;;;21.53;14.90;;;;;;;0.94;100.00;100643.11;1510641;85;21624;-89
2023/01/08 03:56:02;;;;;;;25.53;14.13;;;;;;;0.94;100.00;100637.91;1513916;85;22403;-88
2023/01/08 03:58:29;;;;;;;36.57;14.40;;;;;;;0.94;100.00;100640.52;1514011;85;21641;-89
2023/01/08 04:00:55;;;;;;;37.63;15.43;;;;;;;0.92;100.00;100632.39;1519103;85;21644;-87
2023/01/08 04:03:23;;;;;;;36.30;14.37;;;;;;;0.90;100.00;100630.72;1516140;85;21850;-89
2023/01/08 04:05:49;;;;;;;26.13;15.13;;;;;;;0.86;100.00;100623.13;1526514;84;22550;-87
2023/01/08 04:08:15;;;;;;;21.57;15.47;;;;;;;0.82;100.00;100621.62;1533390;84;21684;-89
2023/01/08 04:10:41;;;;;;;16.20;11.97;;;;;;;0.80;100.00;100636.02;1472129;88;21819;-88
2023/01/08 04:13:07;;;;;;;19.23;12.30;;;;;;;0.77;100.00;100628.36;1530573;84;22668;-87
2023/01/08 04:15:33;;;;;;;22.23;13.50;;;;;;;0.76;100.00;100633.20;1527504;84;22542;-89
2023/01/08 04:18:00;;;;;;;26.23;14.37;;;;;;;0.77;100.00;100628.83;1473594;88;21522;-88
2023/01/08 04:20:26;;;;;;;32.43;15.90;;;;;;;0.77;100.00;100629.66;1515270;84;21705;-90
2023/01/08 04:22:52;;;;;;;41.20;14.30;;;;;;;0.76;100.00;100625.39;1480789;88;22320;-88
2023/01/08 04:25:18;;;;;;;35.03;14.23;;;;;;;0.72;100.00;100629.09;1543721;84;21423;-89
2023/01/08 04:27:44;;;;;;;29.50;17.13;;;;;;;0.69;100.00;100629.22;1537144;84;21467;-89
2023/01/08 04:30:13;;;;;;;21.50;15.00;;;;;;;0.65;100.00;100630.31;1543151;84;22538;-89
2023/01/08 04:32:39;;;;;;;20.10;13.97;;;;;;;0.65;100.00;100630.31;1540612;84;22719;-87
2023/01/08 04:35:06;;;;;;;17.83;13.27;;;;;;;0.66;100.00;100628.08;1541472;84;21824;-88
2023/01/08 04:37:32;;;;;;;21.10;14.77;;;;;;;0.68;100.00;100627.55;1519586;84;22418;-89
2023/01/08 04:39:58;;;;;;;18.87;14.43;;;;;;;0.71;100.00;100631.76;1542922;84;21566;-87
2023/01/08 04:42:24;;;;;;;20.97;14.27;;;;;;;0.75;100.00;100634.14;1540531;84;21574;-88
2023/01/08 04:44:52;;;;;;;21.20;14.30;;;;;;;0.79;100.00;100635.64;1475331;88;21614;-88
2023/01/08 04:47:18;;;;;;;25.63;16.67;;;;;;;0.83;100.00;100642.37;1516413;84;21497;-88
2023/01/08 04:49:44;;;;;;;26.10;16.27;;;;;;;0.84;100.00;100642.77;1543711;84;21444;-89
2023/01/08 04:52:12;;;;;;;21.97;15.63;;;;;;;0.84;100.00;100627.13;1523492;84;22584;-89
2023/01/08 04:54:38;;;;;;;21.53;15.70;;;;;;;0.84;100.00;100627.13;1538226;84;22949;-89
2023/01/08 04:57:04;;;;;;;18.83;12.87;;;;;;;0.88;100.00;100631.72;1515748;84;21488;-88
2023/01/08 04:59:30;;;;;;;22.57;14.03;;;;;;;0.93;100.00;100628.88;1541014;84;21741;-89
2023/01/08 05:01:56;;;;;;;21.20;14.33;;;;;;;0.96;100.00;100625.64;1477548;88;21492;-89
2023/01/08 05:04:23;;;;;;;23.57;15.80;;;;;;;1.02;100.00;100630.52;1499901;84;22254;-89
2023/01/08 05:06:49;;;;;;;24.03;14.23;;;;;;;1.06;100.00;100630.73;1471939;88;22525;-90
2023/01/08 05:09:15;;;;;;;19.53;13.27;;;;;;;1.11;100.00;100625.28;1536557;84;21664;-89
2023/01/08 05:11:42;;;;;;;21.33;14.87;;;;;;;1.15;100.00;100632.00;1539752;84;21578;-89
2023/01/08 05:14:08;;;;;;;22.87;15.03;;;;;;;1.20;100.00;100630.00;1545175;84;21520;-88
2023/01/08 05:16:36;;;;;;;21.40;14.33;;;;;;;1.20;100.00;100616.13;1475962;88;21615;-88
2023/01/08 05:19:02;;;;;;;22.57;15.03;;;;;;;1.22;100.00;100622.94;1541100;84;22660;-88
2023/01/08 05:21:28;;;;;;;24.40;14.27;;;;;;;1.24;100.00;100621.10;1544029;84;21670;-88
2023/01/08 05:23:54;;;;;;;21.43;15.33;;;;;;;1.27;100.00;100626.14;1543068;84;21636;-89
2023/01/08 05:26:21;;;;;;;19.87;14.63;;;;;;;1.30;100.00;100622.06;1477485;88;22554;-89
2023/01/08 05:28:47;;;;;;;22.33;15.90;;;;;;;1.36;100.00;100619.59;1541904;84;21741;-89
2023/01/08 05:31:14;;;;;;;22.40;15.33;;;;;;;1.41;100.00;100621.92;1546288;84;21777;-89
2023/01/08 05:33:40;;;;;;;19.47;13.83;;;;;;;1.42;100.00;100624.47;1552225;84;21806;-89
2023/01/08 05:36:10;;;;;;;20.83;14.60;;;;;;;1.42;100.00;100619.72;1472312;88;21581;-88
2023/01/08 05:38:37;;;;;;;23.67;15.13;;;;;;;1.42;100.00;100610.59;1546208;84;21769;-87
2023/01/08 05:41:05;;;;;;;22.10;15.33;;;;;;;1.40;100.00;100608.52;1473907;88;21698;-87
2023/01/08 05:43:31;;;;;;;19.20;14.20;;;;;;;1.34;100.00;100606.62;1546092;84;21878;-88
2023/01/08 05:46:02;;;;;;;23.53;13.70;;;;;;;1.35;100.00;100602.23;1542404;84;21543;-89
2023/01/08 05:48:30;;;;;;;25.68;14.55;;;;;;;1.38;100.00;100607.28;1543716;84;21581;-89
2023/01/08 05:50:56;;;;;;;19.30;14.40;;;;;;;1.39;100.00;100605.54;1544189;84;21410;-88
2023/01/08 05:53:23;;;;;;;25.57;13.83;;;;;;;1.40;100.00;100612.43;1537831;84;21610;-89
2023/01/08 05:55:49;;;;;;;19.80;12.37;;;;;;;1.43;100.00;100604.44;1536836;84;21759;-88
2023/01/08 05:58:18;;;;;;;28.20;16.83;;;;;;;1.41;100.00;100607.58;1541907;84;21588;-89
2023/01/08 06:00:43;;;;;;;27.93;17.50;;;;;;;1.42;100.00;100629.69;1543653;84;21798;-88
2023/01/08 06:03:10;;;;;;;33.50;18.83;;;;;;;1.46;100.00;100626.44;1485490;88;21691;-89
2023/01/08 06:05:36;;;;;;;43.50;22.87;;;;;;;1.45;100.00;100618.24;1550998;84;22474;-89
2023/01/08 06:08:02;;;;;;;47.50;26.37;;;;;;;1.48;100.00;100624.13;1541532;84;21641;-88
2023/01/08 06:10:29;;;;;;;51.07;25.07;;;;;;;1.52;100.00;100623.48;1469808;87;21880;-89
2023/01/08 06:12:55;;;;;;;51.73;25.07;;;;;;;1.58;100.00;100624.44;1543381;84;21626;-89
2023/01/08 06:15:23;;;;;;;45.37;23.10;;;;;;;1.66;100.00;100618.80;1539687;84;22436;-91
2023/01/08 06:17:49;;;;;;;52.00;25.63;;;;;;;1.82;100.00;100631.85;1514550;84;21700;-90
2023/01/08 06:20:15;;;;;;;84.77;43.17;;;;;;;1.82;100.00;100631.85;1478426;88;22766;-90
2023/01/08 06:22:41;;;;;;;74.23;38.50;;;;;;;1.87;100.00;100622.83;1538896;84;21726;-89
2023/01/08 06:25:08;;;;;;;74.53;38.83;;;;;;;1.95;100.00;100611.94;1521164;84;21617;-89
2023/01/08 06:27:34;;;;;;;83.70;33.73;;;;;;;2.05;100.00;100628.77;1471987;88;21316;-89
2023/01/08 06:30:00;;;;;;;62.70;30.07;;;;;;;2.09;100.00;100622.42;1521188;84;22589;-88
2023/01/08 06:32:26;;;;;;;55.10;27.23;;;;;;;2.20;100.00;100616.59;1536991;84;21462;-90
2023/01/08 06:34:52;;;;;;;51.40;25.80;;;;;;;2.22;100.00;100623.41;1539922;84;21745;-89
2023/01/08 06:37:18;;;;;;;55.53;25.57;;;;;;;2.22;100.00;100623.41;1517487;84;21820;-89
2023/01/08 06:39:45;;;;;;;56.40;25.17;;;;;;;2.28;100.00;100612.23;1545305;84;22205;-89
2023/01/08 06:42:11;;;;;;;54.57;27.93;;;;;;;2.35;100.00;100616.16;1465090;88;21904;-88
2023/01/08 06:44:37;;;;;;;55.97;26.37;;;;;;;2.44;100.00;100645.64;1542349;84;22687;-87
2023/01/08 06:47:03;;;;;;;55.33;27.57;;;;;;;2.47;100.00;100641.10;1546442;84;21827;-90
2023/01/08 06:49:30;;;;;;;74.50;32.60;;;;;;;2.44;100.00;100640.42;1473023;88;21463;-90
2023/01/08 06:51:56;;;;;;;73.27;31.40;;;;;;;2.43;100.00;100657.03;1536139;84;21933;-88
2023/01/08 06:54:22;;;;;;;50.70;26.63;;;;;;;2.44;100.00;100643.03;1547835;84;21991;-88
2023/01/08 06:56:48;;;;;;;53.07;26.93;;;;;;;2.43;100.00;100650.50;1541011;84;22005;-89
2023/01/08 06:59:14;;;;;;;56.53;29.70;;;;;;;2.43;100.00;100650.50;1470440;88;22746;-88
2023/01/08 07:01:42;;;;;;;60.80;31.80;;;;;;;2.46;100.00;100654.24;1543407;84;21992;-91
2023/01/08 07:04:08;;;;;;;80.00;39.17;;;;;;;2.43;100.00;100640.05;1542242;84;22083;-90
2023/01/08 07:06:35;;;;;;;86.73;39.20;;;;;;;2.43;100.00;100640.05;1460620;88;21927;-88
2023/01/08 07:09:01;;;;;;;68.83;33.60;;;;;;;2.51;100.00;100655.29;1536405;84;22073;-90
2023/01/08 07:11:27;;;;;;;74.40;37.20;;;;;;;2.50;100.00;100672.71;1540057;84;22933;-88
2023/01/08 07:13:55;;;;;;;70.77;34.43;;;;;;;2.48;100.00;100657.61;1539359;84;21329;-88
2023/01/08 07:16:21;;;;;;;74.47;33.30;;;;;;;2.48;100.00;100657.61;1546767;84;23078;-90
2023/01/08 07:18:47;;;;;;;90.93;43.13;;;;;;;2.61;100.00;100665.08;1478581;88;22038;-88
2023/01/08 07:21:13;;;;;;;128.43;54.70;;;;;;;2.61;100.00;100665.08;1520083;84;22498;-90
2023/01/08 07:23:40;;;;;;;89.17;43.47;;;;;;;2.69;100.00;100667.25;1542398;84;22945;-92
2023/01/08 07:26:07;;;;;;;85.10;39.17;;;;;;;2.69;100.00;100667.25;1537442;84;21970;-90
2023/01/08 07:28:34;;;;;;;63.67;31.33;;;;;;;2.69;100.00;100675.09;1477787;88;21991;-89
2023/01/08 07:31:05;;;;;;;64.60;30.77;;;;;;;2.70;100.00;100672.84;1542114;84;22078;-89
2023/01/08 07:33:32;;;;;;;66.53;31.93;;;;;;;2.70;100.00;100672.84;1537969;84;21994;-89
2023/01/08 07:35:58;;;;;;;73.80;35.47;;;;;;;2.72;100.00;100665.77;1541959;84;23009;-89
2023/01/08 07:38:24;;;;;;;63.87;34.30;;;;;;;2.75;100.00;100675.20;1544971;84;22029;-90
2023/01/08 07:40:52;;;;;;;67.77;34.20;;;;;;;2.76;100.00;100674.25;1472690;88;22065;-89
2023/01/08 07:43:19;;;;;;;66.20;36.93;;;;;;;2.80;100.00;100678.38;1539139;84;22043;-90
2023/01/08 07:45:45;;;;;;;64.13;34.03;;;;;;;2.81;100.00;100673.52;1541667;84;22064;-91
2023/01/08 07:48:15;;;;;;;68.63;37.90;;;;;;;2.84;100.00;100680.70;1540282;84;21998;-91
2023/01/08 07:50:43;;;;;;;74.03;39.70;;;;;;;2.87;100.00;100679.69;1540909;84;22083;-89
2023/01/08 07:53:12;;;;;;;79.23;41.37;;;;;;;2.90;100.00;100679.50;1521113;84;22134;-90
2023/01/08 07:55:39;;;;;;;65.53;31.70;;;;;;;2.93;100.00;100680.62;1476518;87;22178;-91
2023/01/08 07:58:12;;;;;;;59.17;29.40;;;;;;;2.97;100.00;100667.75;1538771;84;22072;-89
2023/01/08 08:00:38;;;;;;;64.23;32.03;;;;;;;2.99;100.00;100663.25;1541048;84;22096;-90
2023/01/08 08:03:08;;;;;;;65.00;32.73;;;;;;;3.05;100.00;100663.34;1472762;88;23129;-91
2023/01/08 08:05:34;;;;;;;72.20;35.37;;;;;;;3.09;100.00;100656.53;1496641;86;22205;-91
2023/01/08 08:08:01;;;;;;;68.80;36.27;;;;;;;3.18;100.00;100661.67;1477079;88;22006;-92
2023/01/08 08:10:27;;;;;;;80.53;37.67;;;;;;;3.18;100.00;100679.14;1539167;84;22113;-89
2023/01/08 08:12:53;;;;;;;75.83;34.37;;;;;;;3.12;100.00;100673.82;1478169;88;23043;-89
2023/01/08 08:15:19;;;;;;;82.47;34.23;;;;;;;3.12;100.00;100672.52;1539323;84;23561;-91
2023/01/08 08:17:48;;;;;;;66.37;31.17;;;;;;;3.13;100.00;100668.48;1540443;84;22059;-91
2023/01/08 08:20:15;;;;;;;64.40;28.97;;;;;;;3.20;100.00;100670.27;1544503;84;22449;-91
2023/01/08 08:22:41;;;;;;;57.80;28.00;;;;;;;3.15;100.00;100650.92;1532162;84;23055;-90
2023/01/08 08:25:08;;;;;;;55.43;29.50;;;;;;;3.15;100.00;100650.92;1538552;84;21405;-89
2023/01/08 08:27:34;;;;;;;70.77;34.63;;;;;;;3.15;100.00;100665.78;1473376;88;22229;-90
2023/01/08 08:30:01;;;;;;;74.57;33.87;;;;;;;3.12;100.00;100669.42;1541141;84;22060;-88
2023/01/08 08:32:27;;;;;;;58.57;29.63;;;;;;;3.14;100.00;100662.80;1478562;88;22215;-90
2023/01/08 08:34:53;;;;;;;56.50;30.87;;;;;;;3.17;100.00;100662.62;1549260;84;22932;-91
2023/01/08 08:37:19;;;;;;;66.57;31.93;;;;;;;3.22;100.00;100674.08;1478580;88;22059;-92
2023/01/08 08:39:45;;;;;;;64.67;30.30;;;;;;;3.26;100.00;100680.83;1540285;84;22050;-91
2023/01/08 08:42:11;;;;;;;63.87;32.40;;;;;;;3.28;100.00;100684.16;1509963;84;23073;-90
2023/01/08 08:44:38;;;;;;;64.90;33.20;;;;;;;3.27;100.00;100673.34;1546187;84;21989;-88
2023/01/08 08:51:05;;;;;;;71.60;32.30;;;;;;;3.31;100.00;100691.82;1471976;88;22161;-91
2023/01/08 08:53:31;;;;;;;59.17;30.83;;;;;;;3.30;100.00;100693.60;1543663;84;21980;-91
2023/01/08 08:55:58;;;;;;;68.27;35.10;;;;;;;3.33;100.00;100683.42;1521453;84;22022;-91
2023/01/08 08:58:24;;;;;;;58.10;32.60;;;;;;;3.36;100.00;100693.70;1537836;84;22871;-91
2023/01/08 09:00:50;;;;;;;68.93;32.90;;;;;;;3.40;100.00;100686.05;1520273;84;22140;-91
2023/01/08 09:03:17;;;;;;;60.30;31.90;;;;;;;3.46;100.00;100690.06;1541752;84;22923;-90
2023/01/08 09:05:44;;;;;;;71.93;35.40;;;;;;;3.50;100.00;100678.45;1550213;84;22182;-91
2023/01/08 09:08:11;;;;;;;70.83;36.43;;;;;;;3.50;100.00;100673.22;1536242;84;21852;-89
2023/01/08 09:10:41;;;;;;;72.03;36.10;;;;;;;3.53;100.00;100662.08;1475833;88;22179;-90
2023/01/08 09:13:07;;;;;;;72.03;39.30;;;;;;;3.51;100.00;100675.75;1540885;84;22024;-91
2023/01/08 09:15:35;;;;;;;76.27;37.27;;;;;;;3.54;100.00;100670.33;1537295;84;22002;-91
2023/01/08 09:18:03;;;;;;;75.50;39.10;;;;;;;3.58;100.00;100656.09;1475111;88;22011;-92
2023/01/08 09:20:30;;;;;;;82.90;45.87;;;;;;;3.62;100.00;100651.50;1546007;84;22098;-90
2023/01/08 09:23:00;;;;;;;198.97;78.87;;;;;;;3.73;100.00;100644.28;1467527;88;22938;-89
2023/01/08 09:25:27;;;;;;;451.15;186.55;;;;;;;3.73;100.00;100644.28;1523774;84;21344;-90
2023/01/08 09:28:03;;;;;;;146.43;67.67;;;;;;;3.76;100.00;100640.15;1548884;84;21812;-89
2023/01/08 09:30:30;;;;;;;85.20;48.63;;;;;;;3.71;100.00;100635.11;1475379;88;21449;-90
2023/01/08 09:33:00;;;;;;;75.77;39.63;;;;;;;3.73;100.00;100635.11;1546950;84;21278;-89
2023/01/08 09:35:27;;;;;;;74.62;41.37;;;;;;;3.78;100.00;100640.91;1475788;88;22154;-91
2023/01/08 09:37:55;;;;;;;64.60;37.53;;;;;;;3.83;100.00;100639.67;1539635;84;21359;-92
2023/01/08 09:40:35;;;;;;;62.63;35.30;;;;;;;3.83;100.00;100639.67;1476580;88;21486;-92
2023/01/08 09:43:04;;;;;;;67.60;39.07;;;;;;;3.80;100.00;100627.25;1534225;84;21454;-91
2023/01/08 09:45:36;;;;;;;75.17;41.27;;;;;;;3.90;100.00;100644.50;1534404;84;21351;-92
2023/01/08 09:48:07;;;;;;;74.07;42.67;;;;;;;3.84;100.00;100633.95;1542927;84;22379;-89
2023/01/08 09:50:34;;;;;;;72.87;41.85;;;;;;;3.84;100.00;100633.95;1536133;84;21403;-90
2023/01/08 09:53:01;;;;;;;74.97;42.53;;;;;;;3.82;100.00;100639.75;1550848;84;21359;-90
2023/01/08 09:55:31;;;;;;;71.17;40.37;;;;;;;3.84;100.00;100626.94;1474948;88;21500;-89
2023/01/08 09:57:59;;;;;;;58.87;36.40;;;;;;;3.92;100.00;100626.45;1540739;84;21558;-91
2023/01/08 10:00:29;;;;;;;63.77;37.10;;;;;;;3.90;100.00;100611.77;1474054;88;21353;-90
2023/01/08 10:02:56;;;;;;;64.20;38.63;;;;;;;3.98;100.00;100627.83;1540491;84;21492;-89
2023/01/08 10:05:25;;;;;;;63.80;37.90;;;;;;;3.98;100.00;100627.35;1475635;88;21301;-89
2023/01/08 10:07:51;;;;;;;72.60;42.13;;;;;;;4.01;100.00;100611.91;1517331;84;22578;-88
2023/01/08 10:10:27;;;;;;;65.90;39.37;;;;;;;4.01;100.00;100607.98;1479433;88;21455;-90
2023/01/08 10:12:54;;;;;;;58.80;35.67;;;;;;;4.11;100.00;100614.75;1539198;84;21550;-91
2023/01/08 10:15:22;;;;;;;53.77;32.77;;;;;;;4.14;100.00;100618.00;1466527;88;22292;-90
2023/01/08 10:18:08;;;;;;;61.10;36.97;;;;;;;4.17;100.00;100615.65;1546898;84;21431;-92
2023/01/08 10:20:34;;;;;;;66.57;37.67;;;;;;;4.21;100.00;100609.28;1474131;87;21360;-91
2023/01/08 10:23:16;;;;;;;76.37;44.47;;;;;;;4.26;100.00;100601.96;1543696;84;22335;-89
2023/01/08 10:25:59;;;;;;;76.00;43.70;;;;;;;4.33;100.00;100602.38;1472048;88;22241;-90
2023/01/08 10:28:35;;;;;;;66.40;41.97;;;;;;;4.39;100.00;100599.34;1539768;84;21329;-90
2023/01/08 10:31:12;;;;;;;60.97;37.43;;;;;;;4.42;100.00;100591.27;1539942;84;21529;-89
2023/01/08 10:33:45;;;;;;;64.47;36.37;;;;;;;4.41;100.00;100590.91;1473282;87;21375;-88
2023/01/08 10:36:15;;;;;;;62.20;37.47;;;;;;;4.40;100.00;100588.77;1540134;84;21595;-87
2023/01/08 10:38:56;;;;;;;62.87;37.93;;;;;;;4.40;100.00;100586.15;1537541;84;21322;-88
2023/01/08 10:41:22;;;;;;;64.05;37.30;;;;;;;4.45;100.00;100587.96;1475971;88;21441;-89
2023/01/08 10:44:04;;;;;;;63.57;37.90;;;;;;;4.52;100.00;100579.23;1541672;84;21425;-89
2023/01/08 10:46:47;;;;;;;77.00;44.97;;;;;;;4.56;100.00;100580.69;1542625;84;22535;-89
2023/01/08 10:49:18;;;;;;;98.47;54.77;;;;;;;4.58;100.00;100579.28;1543202;84;21330;-90
2023/01/08 10:51:51;;;;;;;;;;;;;;;4.59;100.00;100574.39;1542355;84;21597;-90
2023/01/08 10:54:35;;;;;;;80.10;48.23;;;;;;;4.60;100.00;100578.69;1537112;84;20282;-90
2023/01/08 10:57:02;;;;;;;77.63;44.53;;;;;;;4.61;100.00;100581.21;1538520;84;21529;-90
2023/01/08 10:59:28;;;;;;;82.87;48.03;;;;;;;4.63;100.00;100571.91;1577777;84;21366;-88
2023/01/08 11:01:56;;;;;;;86.30;50.10;;;;;;;4.66;100.00;100571.70;1516736;84;22349;-91
2023/01/08 11:04:33;;;;;;;87.87;48.50;;;;;;;4.69;100.00;100574.11;1521992;84;21381;-89
2023/01/08 11:07:02;;;;;;;69.07;39.37;;;;;;;4.73;100.00;100567.73;1474041;88;21412;-90
2023/01/08 11:09:36;;;;;;;65.73;38.70;;;;;;;4.79;100.00;100566.46;1540854;84;21536;-90
2023/01/08 11:12:02;;;;;;;67.67;40.97;;;;;;;4.84;100.00;100557.81;1478436;88;22465;-90
2023/01/08 11:14:34;;;;;;;67.87;38.13;;;;;;;4.87;100.00;100558.42;1539346;84;21307;-91
2023/01/08 11:17:03;;;;;;;68.27;39.27;;;;;;;4.90;100.00;100555.58;1537927;84;22342;-89
2023/01/08 11:19:32;;;;;;;65.00;40.33;;;;;;;4.93;100.00;100551.91;1542748;84;22891;-88
2023/01/08 11:22:08;;;;;;;48.33;30.73;;;;;;;4.93;100.00;100546.19;1538791;84;22165;-89
2023/01/08 11:24:37;;;;;;;46.10;30.93;;;;;;;4.96;100.00;100535.47;1473511;87;21426;-88
2023/01/08 11:27:29;;;;;;;54.93;33.17;;;;;;;5.02;100.00;100538.13;1548555;84;21352;-89
2023/01/08 11:30:21;;;;;;;56.87;34.00;;;;;;;5.05;100.00;100538.39;1538206;84;21786;-90
2023/01/08 11:33:02;;;;;;;58.03;36.00;;;;;;;5.12;100.00;100542.23;1476979;88;21433;-90